sensor_id;sensor_type;location;lat;lon;timestamp;P1;durP1;ratioP1;P2;durP2;ratioP2
26908;SDS011;14477;51.038;4.588;2024-01-25T00:01:12;17.38;;;2.33;;
26908;SDS011;14477;51.038;4.588;2024-01-25T00:03:38;14.23;;;2.60;;
26908;SDS011;14477;51.038;4.588;2024-01-25T00:06:06;11.07;;;2.43;;
26908;SDS011;14477;51.038;4.588;2024-01-25T00:08:35;9.32;;;1.75;;
26908;SDS011;14477;51.038;4.588;2024-01-25T00:11:01;8.43;;;2.20;;
26908;SDS011;14477;51.038;4.588;2024-01-25T00:13:27;11.10;;;2.10;;
26908;SDS011;14477;51.038;4.588;2024-01-25T00:15:53;11.68;;;2.00;;
26908;SDS011;14477;51.038;4.588;2024-01-25T00:18:19;13.63;;;2.60;;
26908;SDS011;14477;51.038;4.588;2024-01-25T00:20:45;7.47;;;1.77;;
26908;SDS011;14477;51.038;4.588;2024-01-25T00:23:11;10.27;;;1.67;;
26908;SDS011;14477;51.038;4.588;2024-01-25T00:25:37;9.95;;;1.70;;
26908;SDS011;14477;51.038;4.588;2024-01-25T00:28:03;7.63;;;1.57;;
26908;SDS011;14477;51.038;4.588;2024-01-25T00:30:29;8.50;;;1.70;;
26908;SDS011;14477;51.038;4.588;2024-01-25T00:50:43;10.63;;;1.73;;
26908;SDS011;14477;51.038;4.588;2024-01-25T00:53:09;9.00;;;2.05;;
26908;SDS011;14477;51.038;4.588;2024-01-25T00:55:35;10.57;;;1.80;;
26908;SDS011;14477;51.038;4.588;2024-01-25T00:58:01;11.00;;;1.73;;
26908;SDS011;14477;51.038;4.588;2024-01-25T01:00:27;7.93;;;2.20;;
26908;SDS011;14477;51.038;4.588;2024-01-25T01:02:53;9.45;;;1.75;;
26908;SDS011;14477;51.038;4.588;2024-01-25T01:05:19;14.73;;;2.07;;
26908;SDS011;14477;51.038;4.588;2024-01-25T01:07:45;13.10;;;2.05;;
26908;SDS011;14477;51.038;4.588;2024-01-25T01:10:11;9.68;;;1.98;;
26908;SDS011;14477;51.038;4.588;2024-01-25T01:12:39;12.93;;;2.75;;
26908;SDS011;14477;51.038;4.588;2024-01-25T01:15:05;10.07;;;1.83;;
26908;SDS011;14477;51.038;4.588;2024-01-25T01:17:30;8.18;;;1.77;;
26908;SDS011;14477;51.038;4.588;2024-01-25T01:19:56;12.95;;;2.00;;
26908;SDS011;14477;51.038;4.588;2024-01-25T01:22:22;8.30;;;1.97;;
26908;SDS011;14477;51.038;4.588;2024-01-25T01:24:48;10.18;;;1.90;;
26908;SDS011;14477;51.038;4.588;2024-01-25T01:27:13;11.27;;;2.37;;
26908;SDS011;14477;51.038;4.588;2024-01-25T01:29:39;10.15;;;1.65;;
26908;SDS011;14477;51.038;4.588;2024-01-25T01:32:06;10.03;;;1.70;;
26908;SDS011;14477;51.038;4.588;2024-01-25T01:34:32;11.20;;;2.00;;
26908;SDS011;14477;51.038;4.588;2024-01-25T01:36:57;12.60;;;2.57;;
26908;SDS011;14477;51.038;4.588;2024-01-25T01:39:23;10.25;;;1.70;;
26908;SDS011;14477;51.038;4.588;2024-01-25T01:41:50;8.90;;;1.70;;
26908;SDS011;14477;51.038;4.588;2024-01-25T01:44:16;10.67;;;2.10;;
26908;SDS011;14477;51.038;4.588;2024-01-25T01:46:42;7.82;;;2.05;;
26908;SDS011;14477;51.038;4.588;2024-01-25T01:49:08;9.63;;;1.70;;
26908;SDS011;14477;51.038;4.588;2024-01-25T01:51:37;9.13;;;1.60;;
26908;SDS011;14477;51.038;4.588;2024-01-25T01:54:05;8.30;;;2.00;;
26908;SDS011;14477;51.038;4.588;2024-01-25T01:56:32;13.85;;;2.08;;
26908;SDS011;14477;51.038;4.588;2024-01-25T01:58:58;14.40;;;3.08;;
26908;SDS011;14477;51.038;4.588;2024-01-25T02:01:25;6.90;;;1.77;;
26908;SDS011;14477;51.038;4.588;2024-01-25T02:03:52;11.90;;;1.75;;
26908;SDS011;14477;51.038;4.588;2024-01-25T02:06:18;13.97;;;2.23;;
26908;SDS011;14477;51.038;4.588;2024-01-25T02:08:45;12.90;;;1.90;;
26908;SDS011;14477;51.038;4.588;2024-01-25T02:11:12;7.68;;;1.77;;
26908;SDS011;14477;51.038;4.588;2024-01-25T02:13:38;13.07;;;2.00;;
26908;SDS011;14477;51.038;4.588;2024-01-25T02:16:04;8.73;;;1.88;;
26908;SDS011;14477;51.038;4.588;2024-01-25T02:18:32;11.70;;;2.10;;
26908;SDS011;14477;51.038;4.588;2024-01-25T02:20:58;8.48;;;2.10;;
26908;SDS011;14477;51.038;4.588;2024-01-25T02:23:24;11.32;;;1.85;;
26908;SDS011;14477;51.038;4.588;2024-01-25T02:25:50;8.67;;;1.70;;
26908;SDS011;14477;51.038;4.588;2024-01-25T02:28:16;11.25;;;1.88;;
26908;SDS011;14477;51.038;4.588;2024-01-25T02:30:41;12.40;;;2.43;;
26908;SDS011;14477;51.038;4.588;2024-01-25T02:33:07;7.72;;;1.48;;
26908;SDS011;14477;51.038;4.588;2024-01-25T02:35:33;10.43;;;1.87;;
26908;SDS011;14477;51.038;4.588;2024-01-25T02:37:59;7.75;;;1.67;;
26908;SDS011;14477;51.038;4.588;2024-01-25T02:40:25;10.10;;;1.42;;
26908;SDS011;14477;51.038;4.588;2024-01-25T02:42:50;10.33;;;2.10;;
26908;SDS011;14477;51.038;4.588;2024-01-25T02:45:16;12.68;;;1.63;;
26908;SDS011;14477;51.038;4.588;2024-01-25T02:47:42;8.27;;;1.70;;
26908;SDS011;14477;51.038;4.588;2024-01-25T02:50:08;11.23;;;2.63;;
26908;SDS011;14477;51.038;4.588;2024-01-25T02:52:34;6.50;;;1.90;;
26908;SDS011;14477;51.038;4.588;2024-01-25T02:55:00;8.10;;;1.50;;
26908;SDS011;14477;51.038;4.588;2024-01-25T02:57:25;9.67;;;1.70;;
26908;SDS011;14477;51.038;4.588;2024-01-25T02:59:51;6.38;;;1.40;;
26908;SDS011;14477;51.038;4.588;2024-01-25T03:02:17;8.60;;;1.80;;
26908;SDS011;14477;51.038;4.588;2024-01-25T03:04:46;9.63;;;1.80;;
26908;SDS011;14477;51.038;4.588;2024-01-25T03:07:12;11.25;;;1.40;;
26908;SDS011;14477;51.038;4.588;2024-01-25T03:09:38;7.80;;;1.40;;
26908;SDS011;14477;51.038;4.588;2024-01-25T03:12:03;8.85;;;1.70;;
26908;SDS011;14477;51.038;4.588;2024-01-25T03:14:29;12.88;;;1.70;;
26908;SDS011;14477;51.038;4.588;2024-01-25T03:16:55;11.60;;;1.77;;
26908;SDS011;14477;51.038;4.588;2024-01-25T03:19:23;7.88;;;1.70;;
26908;SDS011;14477;51.038;4.588;2024-01-25T03:21:50;7.25;;;2.00;;
26908;SDS011;14477;51.038;4.588;2024-01-25T03:24:16;10.43;;;1.97;;
26908;SDS011;14477;51.038;4.588;2024-01-25T03:26:42;8.48;;;1.50;;
26908;SDS011;14477;51.038;4.588;2024-01-25T03:29:08;12.40;;;1.87;;
26908;SDS011;14477;51.038;4.588;2024-01-25T03:31:33;9.40;;;1.57;;
26908;SDS011;14477;51.038;4.588;2024-01-25T03:34:01;8.50;;;1.50;;
26908;SDS011;14477;51.038;4.588;2024-01-25T03:36:27;8.80;;;1.45;;
26908;SDS011;14477;51.038;4.588;2024-01-25T03:38:53;8.90;;;1.57;;
26908;SDS011;14477;51.038;4.588;2024-01-25T03:41:18;9.55;;;1.70;;
26908;SDS011;14477;51.038;4.588;2024-01-25T03:43:44;7.03;;;1.20;;
26908;SDS011;14477;51.038;4.588;2024-01-25T03:46:11;6.10;;;1.40;;
26908;SDS011;14477;51.038;4.588;2024-01-25T03:48:37;7.45;;;1.30;;
26908;SDS011;14477;51.038;4.588;2024-01-25T03:51:02;10.33;;;1.63;;
26908;SDS011;14477;51.038;4.588;2024-01-25T03:53:28;9.38;;;1.90;;
26908;SDS011;14477;51.038;4.588;2024-01-25T03:55:54;10.10;;;1.50;;
26908;SDS011;14477;51.038;4.588;2024-01-25T03:58:20;6.40;;;1.40;;
26908;SDS011;14477;51.038;4.588;2024-01-25T04:00:46;7.95;;;1.90;;
26908;SDS011;14477;51.038;4.588;2024-01-25T04:03:12;5.97;;;1.10;;
26908;SDS011;14477;51.038;4.588;2024-01-25T04:05:38;5.43;;;1.20;;
26908;SDS011;14477;51.038;4.588;2024-01-25T04:08:07;8.20;;;1.60;;
26908;SDS011;14477;51.038;4.588;2024-01-25T04:10:33;5.65;;;1.20;;
26908;SDS011;14477;51.038;4.588;2024-01-25T04:12:59;7.70;;;1.50;;
26908;SDS011;14477;51.038;4.588;2024-01-25T04:15:32;6.78;;;1.27;;
26908;SDS011;14477;51.038;4.588;2024-01-25T04:17:58;6.80;;;1.45;;
26908;SDS011;14477;51.038;4.588;2024-01-25T04:20:23;5.73;;;1.43;;
26908;SDS011;14477;51.038;4.588;2024-01-25T04:22:49;12.38;;;1.92;;
26908;SDS011;14477;51.038;4.588;2024-01-25T04:25:15;7.57;;;1.30;;
26908;SDS011;14477;51.038;4.588;2024-01-25T04:27:41;6.13;;;1.30;;
26908;SDS011;14477;51.038;4.588;2024-01-25T04:30:07;5.73;;;1.40;;
26908;SDS011;14477;51.038;4.588;2024-01-25T04:32:40;6.17;;;1.20;;
26908;SDS011;14477;51.038;4.588;2024-01-25T04:35:05;5.43;;;1.25;;
26908;SDS011;14477;51.038;4.588;2024-01-25T04:37:33;6.85;;;1.33;;
26908;SDS011;14477;51.038;4.588;2024-01-25T04:39:59;3.27;;;0.93;;
26908;SDS011;14477;51.038;4.588;2024-01-25T04:42:24;4.07;;;0.95;;
26908;SDS011;14477;51.038;4.588;2024-01-25T04:44:50;5.23;;;1.40;;
26908;SDS011;14477;51.038;4.588;2024-01-25T04:47:16;6.88;;;1.00;;
26908;SDS011;14477;51.038;4.588;2024-01-25T04:49:42;6.68;;;1.40;;
26908;SDS011;14477;51.038;4.588;2024-01-25T04:52:07;7.07;;;1.50;;
26908;SDS011;14477;51.038;4.588;2024-01-25T04:54:33;4.13;;;1.27;;
26908;SDS011;14477;51.038;4.588;2024-01-25T04:56:59;5.20;;;1.10;;
26908;SDS011;14477;51.038;4.588;2024-01-25T04:59:25;4.88;;;1.20;;
26908;SDS011;14477;51.038;4.588;2024-01-25T05:01:51;5.30;;;1.10;;
26908;SDS011;14477;51.038;4.588;2024-01-25T05:04:19;3.88;;;0.95;;
26908;SDS011;14477;51.038;4.588;2024-01-25T05:06:44;3.28;;;0.80;;
26908;SDS011;14477;51.038;4.588;2024-01-25T05:09:10;2.77;;;0.80;;
26908;SDS011;14477;51.038;4.588;2024-01-25T05:11:39;3.17;;;0.87;;
26908;SDS011;14477;51.038;4.588;2024-01-25T05:14:05;3.80;;;1.10;;
26908;SDS011;14477;51.038;4.588;2024-01-25T05:16:31;6.18;;;1.30;;
26908;SDS011;14477;51.038;4.588;2024-01-25T05:18:57;4.28;;;1.23;;
26908;SDS011;14477;51.038;4.588;2024-01-25T05:21:23;4.50;;;1.00;;
26908;SDS011;14477;51.038;4.588;2024-01-25T05:23:49;4.90;;;1.27;;
26908;SDS011;14477;51.038;4.588;2024-01-25T05:26:15;3.73;;;1.20;;
26908;SDS011;14477;51.038;4.588;2024-01-25T05:28:41;3.47;;;0.90;;
26908;SDS011;14477;51.038;4.588;2024-01-25T05:31:06;3.35;;;0.80;;
26908;SDS011;14477;51.038;4.588;2024-01-25T05:33:37;3.13;;;0.95;;
26908;SDS011;14477;51.038;4.588;2024-01-25T05:36:04;3.80;;;0.90;;
26908;SDS011;14477;51.038;4.588;2024-01-25T05:38:31;2.63;;;0.77;;
26908;SDS011;14477;51.038;4.588;2024-01-25T05:40:57;4.28;;;1.00;;
26908;SDS011;14477;51.038;4.588;2024-01-25T05:43:23;3.33;;;1.17;;
26908;SDS011;14477;51.038;4.588;2024-01-25T05:45:49;2.50;;;0.88;;
26908;SDS011;14477;51.038;4.588;2024-01-25T05:48:15;2.97;;;0.90;;
26908;SDS011;14477;51.038;4.588;2024-01-25T05:50:40;6.32;;;1.10;;
26908;SDS011;14477;51.038;4.588;2024-01-25T05:53:06;2.47;;;0.83;;
26908;SDS011;14477;51.038;4.588;2024-01-25T05:55:32;5.30;;;1.10;;
26908;SDS011;14477;51.038;4.588;2024-01-25T05:57:58;4.83;;;1.00;;
26908;SDS011;14477;51.038;4.588;2024-01-25T06:00:23;4.93;;;1.38;;
26908;SDS011;14477;51.038;4.588;2024-01-25T06:02:49;4.33;;;1.23;;
26908;SDS011;14477;51.038;4.588;2024-01-25T06:05:15;6.38;;;1.25;;
26908;SDS011;14477;51.038;4.588;2024-01-25T06:07:41;3.77;;;1.00;;
26908;SDS011;14477;51.038;4.588;2024-01-25T06:10:06;7.90;;;1.23;;
26908;SDS011;14477;51.038;4.588;2024-01-25T06:12:33;5.47;;;1.23;;
26908;SDS011;14477;51.038;4.588;2024-01-25T06:14:59;6.80;;;1.50;;
26908;SDS011;14477;51.038;4.588;2024-01-25T06:17:25;8.65;;;1.27;;
26908;SDS011;14477;51.038;4.588;2024-01-25T06:19:50;5.13;;;1.57;;
26908;SDS011;14477;51.038;4.588;2024-01-25T06:22:16;6.82;;;1.50;;
26908;SDS011;14477;51.038;4.588;2024-01-25T06:24:43;5.65;;;1.38;;
26908;SDS011;14477;51.038;4.588;2024-01-25T06:27:12;8.03;;;2.37;;
26908;SDS011;14477;51.038;4.588;2024-01-25T06:29:37;10.18;;;1.90;;
26908;SDS011;14477;51.038;4.588;2024-01-25T06:32:03;8.73;;;1.70;;
26908;SDS011;14477;51.038;4.588;2024-01-25T06:34:29;10.52;;;1.63;;
26908;SDS011;14477;51.038;4.588;2024-01-25T06:36:55;7.00;;;1.42;;
26908;SDS011;14477;51.038;4.588;2024-01-25T06:39:20;7.83;;;1.80;;
26908;SDS011;14477;51.038;4.588;2024-01-25T06:41:46;6.77;;;1.60;;
26908;SDS011;14477;51.038;4.588;2024-01-25T06:44:11;7.30;;;1.57;;
26908;SDS011;14477;51.038;4.588;2024-01-25T06:46:38;11.02;;;1.83;;
26908;SDS011;14477;51.038;4.588;2024-01-25T06:49:03;10.00;;;2.00;;
26908;SDS011;14477;51.038;4.588;2024-01-25T06:51:29;9.48;;;1.88;;
26908;SDS011;14477;51.038;4.588;2024-01-25T06:53:55;12.00;;;2.10;;
26908;SDS011;14477;51.038;4.588;2024-01-25T06:56:21;9.47;;;1.70;;
26908;SDS011;14477;51.038;4.588;2024-01-25T06:58:46;10.88;;;2.13;;
26908;SDS011;14477;51.038;4.588;2024-01-25T07:01:12;9.17;;;1.77;;
26908;SDS011;14477;51.038;4.588;2024-01-25T07:03:38;10.38;;;2.00;;
26908;SDS011;14477;51.038;4.588;2024-01-25T07:06:04;10.97;;;2.17;;
26908;SDS011;14477;51.038;4.588;2024-01-25T07:08:29;11.45;;;2.05;;
26908;SDS011;14477;51.038;4.588;2024-01-25T07:10:55;12.63;;;2.70;;
26908;SDS011;14477;51.038;4.588;2024-01-25T07:13:21;8.10;;;2.08;;
26908;SDS011;14477;51.038;4.588;2024-01-25T07:15:47;8.55;;;1.85;;
26908;SDS011;14477;51.038;4.588;2024-01-25T07:18:13;5.30;;;1.70;;
26908;SDS011;14477;51.038;4.588;2024-01-25T07:20:38;11.20;;;2.25;;
26908;SDS011;14477;51.038;4.588;2024-01-25T07:23:04;12.00;;;2.70;;
26908;SDS011;14477;51.038;4.588;2024-01-25T07:25:30;9.27;;;2.72;;
26908;SDS011;14477;51.038;4.588;2024-01-25T07:27:56;8.13;;;2.60;;
26908;SDS011;14477;51.038;4.588;2024-01-25T07:30:21;8.95;;;2.72;;
26908;SDS011;14477;51.038;4.588;2024-01-25T07:32:47;8.80;;;2.10;;
26908;SDS011;14477;51.038;4.588;2024-01-25T07:35:15;8.32;;;2.08;;
26908;SDS011;14477;51.038;4.588;2024-01-25T07:37:40;8.68;;;2.10;;
26908;SDS011;14477;51.038;4.588;2024-01-25T07:40:07;9.30;;;2.20;;
26908;SDS011;14477;51.038;4.588;2024-01-25T07:42:33;8.07;;;1.90;;
26908;SDS011;14477;51.038;4.588;2024-01-25T07:44:59;7.55;;;2.00;;
26908;SDS011;14477;51.038;4.588;2024-01-25T07:47:25;6.45;;;1.70;;
26908;SDS011;14477;51.038;4.588;2024-01-25T07:49:51;5.83;;;1.30;;
26908;SDS011;14477;51.038;4.588;2024-01-25T07:52:17;6.90;;;1.53;;
26908;SDS011;14477;51.038;4.588;2024-01-25T07:54:43;9.13;;;1.63;;
26908;SDS011;14477;51.038;4.588;2024-01-25T07:57:09;8.45;;;1.83;;
26908;SDS011;14477;51.038;4.588;2024-01-25T07:59:35;8.07;;;1.97;;
26908;SDS011;14477;51.038;4.588;2024-01-25T08:02:01;8.60;;;2.47;;
26908;SDS011;14477;51.038;4.588;2024-01-25T08:04:26;7.27;;;1.97;;
26908;SDS011;14477;51.038;4.588;2024-01-25T08:06:52;8.93;;;2.67;;
26908;SDS011;14477;51.038;4.588;2024-01-25T08:09:18;8.40;;;2.37;;
26908;SDS011;14477;51.038;4.588;2024-01-25T08:11:44;7.43;;;2.22;;
26908;SDS011;14477;51.038;4.588;2024-01-25T08:14:10;5.25;;;1.88;;
26908;SDS011;14477;51.038;4.588;2024-01-25T08:16:36;8.87;;;2.30;;
26908;SDS011;14477;51.038;4.588;2024-01-25T08:19:02;8.02;;;1.88;;
26908;SDS011;14477;51.038;4.588;2024-01-25T08:21:29;7.10;;;1.90;;
26908;SDS011;14477;51.038;4.588;2024-01-25T08:23:55;7.80;;;2.50;;
26908;SDS011;14477;51.038;4.588;2024-01-25T08:26:21;7.93;;;1.93;;
26908;SDS011;14477;51.038;4.588;2024-01-25T08:28:46;6.00;;;1.92;;
26908;SDS011;14477;51.038;4.588;2024-01-25T08:31:12;5.97;;;1.40;;
26908;SDS011;14477;51.038;4.588;2024-01-25T08:33:38;10.27;;;2.10;;
26908;SDS011;14477;51.038;4.588;2024-01-25T08:36:10;7.15;;;2.00;;
26908;SDS011;14477;51.038;4.588;2024-01-25T08:38:36;6.77;;;1.87;;
26908;SDS011;14477;51.038;4.588;2024-01-25T08:41:01;8.05;;;2.13;;
26908;SDS011;14477;51.038;4.588;2024-01-25T08:43:27;5.73;;;1.73;;
26908;SDS011;14477;51.038;4.588;2024-01-25T08:45:53;6.03;;;1.70;;
26908;SDS011;14477;51.038;4.588;2024-01-25T08:48:19;6.53;;;1.85;;
26908;SDS011;14477;51.038;4.588;2024-01-25T08:50:45;6.85;;;1.88;;
26908;SDS011;14477;51.038;4.588;2024-01-25T08:53:11;8.63;;;2.57;;
26908;SDS011;14477;51.038;4.588;2024-01-25T08:55:37;7.47;;;1.98;;
26908;SDS011;14477;51.038;4.588;2024-01-25T08:58:03;7.18;;;2.03;;
26908;SDS011;14477;51.038;4.588;2024-01-25T09:00:29;6.50;;;2.07;;
26908;SDS011;14477;51.038;4.588;2024-01-25T09:02:55;12.65;;;2.63;;
26908;SDS011;14477;51.038;4.588;2024-01-25T09:05:21;11.10;;;3.40;;
26908;SDS011;14477;51.038;4.588;2024-01-25T09:07:47;11.65;;;3.00;;
26908;SDS011;14477;51.038;4.588;2024-01-25T09:10:13;13.05;;;3.38;;
26908;SDS011;14477;51.038;4.588;2024-01-25T09:12:40;11.00;;;3.33;;
26908;SDS011;14477;51.038;4.588;2024-01-25T09:15:06;9.80;;;3.20;;
26908;SDS011;14477;51.038;4.588;2024-01-25T09:17:33;9.07;;;2.63;;
26908;SDS011;14477;51.038;4.588;2024-01-25T09:19:59;10.63;;;2.83;;
26908;SDS011;14477;51.038;4.588;2024-01-25T09:22:25;13.13;;;3.30;;
26908;SDS011;14477;51.038;4.588;2024-01-25T09:24:50;13.00;;;3.43;;
26908;SDS011;14477;51.038;4.588;2024-01-25T09:27:16;11.88;;;3.22;;
26908;SDS011;14477;51.038;4.588;2024-01-25T09:29:42;13.10;;;3.97;;
26908;SDS011;14477;51.038;4.588;2024-01-25T09:32:08;11.32;;;3.95;;
26908;SDS011;14477;51.038;4.588;2024-01-25T09:34:37;11.23;;;3.70;;
26908;SDS011;14477;51.038;4.588;2024-01-25T09:37:06;11.82;;;3.72;;
26908;SDS011;14477;51.038;4.588;2024-01-25T09:39:32;12.70;;;3.80;;
26908;SDS011;14477;51.038;4.588;2024-01-25T09:41:58;10.52;;;2.92;;
26908;SDS011;14477;51.038;4.588;2024-01-25T09:44:24;10.77;;;3.45;;
26908;SDS011;14477;51.038;4.588;2024-01-25T09:46:50;11.20;;;3.77;;
26908;SDS011;14477;51.038;4.588;2024-01-25T09:49:16;8.45;;;2.72;;
26908;SDS011;14477;51.038;4.588;2024-01-25T09:51:43;10.95;;;3.83;;
26908;SDS011;14477;51.038;4.588;2024-01-25T09:54:09;10.20;;;3.27;;
26908;SDS011;14477;51.038;4.588;2024-01-25T09:56:35;13.13;;;3.80;;
26908;SDS011;14477;51.038;4.588;2024-01-25T09:59:01;13.43;;;4.13;;
26908;SDS011;14477;51.038;4.588;2024-01-25T10:01:28;12.40;;;4.13;;
26908;SDS011;14477;51.038;4.588;2024-01-25T10:03:54;12.10;;;3.40;;
26908;SDS011;14477;51.038;4.588;2024-01-25T10:06:23;10.82;;;3.22;;
26908;SDS011;14477;51.038;4.588;2024-01-25T10:08:49;12.85;;;3.67;;
26908;SDS011;14477;51.038;4.588;2024-01-25T10:11:15;8.83;;;3.10;;
26908;SDS011;14477;51.038;4.588;2024-01-25T10:13:41;13.48;;;4.15;;
26908;SDS011;14477;51.038;4.588;2024-01-25T10:16:14;18.48;;;4.82;;
26908;SDS011;14477;51.038;4.588;2024-01-25T10:18:42;13.70;;;3.70;;
26908;SDS011;14477;51.038;4.588;2024-01-25T10:21:09;10.82;;;3.95;;
26908;SDS011;14477;51.038;4.588;2024-01-25T10:23:38;11.40;;;3.37;;
26908;SDS011;14477;51.038;4.588;2024-01-25T10:26:05;9.13;;;2.83;;
26908;SDS011;14477;51.038;4.588;2024-01-25T10:28:33;9.63;;;3.30;;
26908;SDS011;14477;51.038;4.588;2024-01-25T10:31:02;8.55;;;3.17;;
26908;SDS011;14477;51.038;4.588;2024-01-25T10:33:32;10.40;;;3.78;;
26908;SDS011;14477;51.038;4.588;2024-01-25T10:35:58;8.47;;;3.60;;
26908;SDS011;14477;51.038;4.588;2024-01-25T10:38:32;9.55;;;3.35;;
26908;SDS011;14477;51.038;4.588;2024-01-25T10:41:03;10.48;;;3.92;;
26908;SDS011;14477;51.038;4.588;2024-01-25T10:43:30;9.63;;;3.55;;
26908;SDS011;14477;51.038;4.588;2024-01-25T10:45:57;10.32;;;3.20;;
26908;SDS011;14477;51.038;4.588;2024-01-25T10:48:26;9.07;;;2.77;;
26908;SDS011;14477;51.038;4.588;2024-01-25T10:50:53;12.55;;;3.88;;
26908;SDS011;14477;51.038;4.588;2024-01-25T10:53:19;10.27;;;3.80;;
26908;SDS011;14477;51.038;4.588;2024-01-25T10:55:48;10.82;;;3.55;;
26908;SDS011;14477;51.038;4.588;2024-01-25T10:58:14;13.32;;;4.13;;
26908;SDS011;14477;51.038;4.588;2024-01-25T11:00:41;10.70;;;3.77;;
26908;SDS011;14477;51.038;4.588;2024-01-25T11:03:07;11.80;;;4.03;;
26908;SDS011;14477;51.038;4.588;2024-01-25T11:05:33;11.43;;;3.80;;
26908;SDS011;14477;51.038;4.588;2024-01-25T11:07:59;10.90;;;3.70;;
26908;SDS011;14477;51.038;4.588;2024-01-25T11:10:25;12.37;;;4.30;;
26908;SDS011;14477;51.038;4.588;2024-01-25T11:13:00;14.73;;;4.70;;
26908;SDS011;14477;51.038;4.588;2024-01-25T11:17:58;13.60;;;3.83;;
26908;SDS011;14477;51.038;4.588;2024-01-25T11:20:26;14.35;;;3.70;;
26908;SDS011;14477;51.038;4.588;2024-01-25T11:23:01;10.10;;;4.20;;
26908;SDS011;14477;51.038;4.588;2024-01-25T11:25:28;10.85;;;3.40;;
26908;SDS011;14477;51.038;4.588;2024-01-25T11:27:55;11.82;;;4.13;;
26908;SDS011;14477;51.038;4.588;2024-01-25T11:30:21;10.80;;;4.00;;
26908;SDS011;14477;51.038;4.588;2024-01-25T11:32:47;13.87;;;4.57;;
26908;SDS011;14477;51.038;4.588;2024-01-25T11:35:14;13.57;;;4.45;;
26908;SDS011;14477;51.038;4.588;2024-01-25T11:37:44;11.35;;;4.35;;
26908;SDS011;14477;51.038;4.588;2024-01-25T11:40:13;11.20;;;3.95;;
26908;SDS011;14477;51.038;4.588;2024-01-25T11:42:42;13.40;;;4.17;;
26908;SDS011;14477;51.038;4.588;2024-01-25T11:45:12;9.57;;;3.50;;
26908;SDS011;14477;51.038;4.588;2024-01-25T11:47:39;11.40;;;3.60;;
26908;SDS011;14477;51.038;4.588;2024-01-25T11:50:06;11.30;;;3.05;;
26908;SDS011;14477;51.038;4.588;2024-01-25T11:52:33;10.88;;;4.03;;
26908;SDS011;14477;51.038;4.588;2024-01-25T11:55:03;10.90;;;3.63;;
26908;SDS011;14477;51.038;4.588;2024-01-25T11:57:30;9.65;;;3.40;;
26908;SDS011;14477;51.038;4.588;2024-01-25T11:59:56;10.45;;;3.65;;
26908;SDS011;14477;51.038;4.588;2024-01-25T12:02:23;8.50;;;2.90;;
26908;SDS011;14477;51.038;4.588;2024-01-25T12:04:49;11.23;;;4.03;;
26908;SDS011;14477;51.038;4.588;2024-01-25T12:07:15;13.97;;;4.00;;
26908;SDS011;14477;51.038;4.588;2024-01-25T12:09:41;12.68;;;3.80;;
26908;SDS011;14477;51.038;4.588;2024-01-25T12:12:08;10.03;;;3.60;;
26908;SDS011;14477;51.038;4.588;2024-01-25T12:14:35;10.13;;;3.40;;
26908;SDS011;14477;51.038;4.588;2024-01-25T12:17:02;10.55;;;3.60;;
26908;SDS011;14477;51.038;4.588;2024-01-25T12:19:29;7.18;;;2.72;;
26908;SDS011;14477;51.038;4.588;2024-01-25T12:21:55;7.93;;;3.30;;
26908;SDS011;14477;51.038;4.588;2024-01-25T12:24:21;9.18;;;3.22;;
26908;SDS011;14477;51.038;4.588;2024-01-25T12:26:47;10.97;;;4.00;;
26908;SDS011;14477;51.038;4.588;2024-01-25T12:29:13;10.40;;;3.42;;
26908;SDS011;14477;51.038;4.588;2024-01-25T12:31:39;11.23;;;3.80;;
26908;SDS011;14477;51.038;4.588;2024-01-25T12:34:11;12.43;;;3.70;;
26908;SDS011;14477;51.038;4.588;2024-01-25T12:36:40;8.40;;;2.90;;
26908;SDS011;14477;51.038;4.588;2024-01-25T12:39:05;11.03;;;3.30;;
26908;SDS011;14477;51.038;4.588;2024-01-25T12:41:31;9.02;;;3.38;;
26908;SDS011;14477;51.038;4.588;2024-01-25T12:43:57;10.20;;;3.30;;
26908;SDS011;14477;51.038;4.588;2024-01-25T12:46:23;8.20;;;3.07;;
26908;SDS011;14477;51.038;4.588;2024-01-25T12:48:49;11.10;;;3.30;;
26908;SDS011;14477;51.038;4.588;2024-01-25T12:51:19;9.25;;;3.40;;
26908;SDS011;14477;51.038;4.588;2024-01-25T12:53:46;7.82;;;2.58;;
26908;SDS011;14477;51.038;4.588;2024-01-25T12:56:15;7.45;;;3.10;;
26908;SDS011;14477;51.038;4.588;2024-01-25T12:58:40;5.70;;;2.07;;
26908;SDS011;14477;51.038;4.588;2024-01-25T13:01:06;12.17;;;3.27;;
26908;SDS011;14477;51.038;4.588;2024-01-25T13:03:32;8.32;;;2.72;;
26908;SDS011;14477;51.038;4.588;2024-01-25T13:05:58;8.67;;;2.80;;
26908;SDS011;14477;51.038;4.588;2024-01-25T13:08:23;9.65;;;3.30;;
26908;SDS011;14477;51.038;4.588;2024-01-25T13:10:49;8.57;;;2.90;;
26908;SDS011;14477;51.038;4.588;2024-01-25T13:13:15;10.18;;;3.67;;
26908;SDS011;14477;51.038;4.588;2024-01-25T13:15:40;10.20;;;2.77;;
26908;SDS011;14477;51.038;4.588;2024-01-25T13:18:06;6.35;;;2.22;;
26908;SDS011;14477;51.038;4.588;2024-01-25T13:20:32;8.07;;;2.77;;
26908;SDS011;14477;51.038;4.588;2024-01-25T13:22:57;9.68;;;3.00;;
26908;SDS011;14477;51.038;4.588;2024-01-25T13:25:23;10.17;;;2.90;;
26908;SDS011;14477;51.038;4.588;2024-01-25T13:27:48;8.10;;;2.83;;
26908;SDS011;14477;51.038;4.588;2024-01-25T13:30:14;9.70;;;3.33;;
26908;SDS011;14477;51.038;4.588;2024-01-25T13:32:40;10.48;;;3.33;;
26908;SDS011;14477;51.038;4.588;2024-01-25T13:35:06;10.40;;;3.80;;
26908;SDS011;14477;51.038;4.588;2024-01-25T13:37:32;7.70;;;2.88;;
26908;SDS011;14477;51.038;4.588;2024-01-25T13:39:58;7.07;;;3.07;;
26908;SDS011;14477;51.038;4.588;2024-01-25T13:42:23;9.20;;;3.63;;
26908;SDS011;14477;51.038;4.588;2024-01-25T13:44:49;7.77;;;3.13;;
26908;SDS011;14477;51.038;4.588;2024-01-25T13:47:15;7.43;;;3.08;;
26908;SDS011;14477;51.038;4.588;2024-01-25T13:49:40;10.20;;;3.60;;
26908;SDS011;14477;51.038;4.588;2024-01-25T13:52:06;7.70;;;3.35;;
26908;SDS011;14477;51.038;4.588;2024-01-25T13:54:41;6.75;;;2.58;;
26908;SDS011;14477;51.038;4.588;2024-01-25T13:57:07;6.67;;;3.17;;
26908;SDS011;14477;51.038;4.588;2024-01-25T13:59:32;6.88;;;2.75;;
26908;SDS011;14477;51.038;4.588;2024-01-25T14:01:58;8.37;;;3.13;;
26908;SDS011;14477;51.038;4.588;2024-01-25T14:04:24;7.45;;;3.05;;
26908;SDS011;14477;51.038;4.588;2024-01-25T14:06:49;6.40;;;2.57;;
26908;SDS011;14477;51.038;4.588;2024-01-25T14:09:15;5.32;;;2.38;;
26908;SDS011;14477;51.038;4.588;2024-01-25T14:11:41;6.27;;;3.07;;
26908;SDS011;14477;51.038;4.588;2024-01-25T14:14:07;8.60;;;3.40;;
26908;SDS011;14477;51.038;4.588;2024-01-25T14:16:33;7.63;;;3.40;;
26908;SDS011;14477;51.038;4.588;2024-01-25T14:18:58;6.60;;;3.10;;
26908;SDS011;14477;51.038;4.588;2024-01-25T14:21:24;7.72;;;3.10;;
26908;SDS011;14477;51.038;4.588;2024-01-25T14:23:50;7.10;;;3.40;;
26908;SDS011;14477;51.038;4.588;2024-01-25T14:26:16;7.90;;;3.50;;
26908;SDS011;14477;51.038;4.588;2024-01-25T14:28:41;8.90;;;3.13;;
26908;SDS011;14477;51.038;4.588;2024-01-25T14:31:07;7.43;;;3.00;;
26908;SDS011;14477;51.038;4.588;2024-01-25T14:33:33;9.20;;;3.87;;
26908;SDS011;14477;51.038;4.588;2024-01-25T14:35:59;9.33;;;3.67;;
26908;SDS011;14477;51.038;4.588;2024-01-25T14:38:25;8.90;;;2.95;;
26908;SDS011;14477;51.038;4.588;2024-01-25T14:40:50;8.45;;;3.78;;
26908;SDS011;14477;51.038;4.588;2024-01-25T14:43:16;5.63;;;2.93;;
26908;SDS011;14477;51.038;4.588;2024-01-25T14:45:42;7.47;;;2.80;;
26908;SDS011;14477;51.038;4.588;2024-01-25T14:48:08;5.50;;;2.63;;
26908;SDS011;14477;51.038;4.588;2024-01-25T14:50:34;6.25;;;2.92;;
26908;SDS011;14477;51.038;4.588;2024-01-25T14:52:59;6.30;;;2.90;;
26908;SDS011;14477;51.038;4.588;2024-01-25T14:55:25;8.32;;;3.17;;
26908;SDS011;14477;51.038;4.588;2024-01-25T14:57:51;6.70;;;3.03;;